Time;durP1;ratioP1;P1;durP2;ratioP2;P2;SDS_P1;SDS_P2;PMS_P1;PMS_P2;Temp;Humidity;BMP_temperature;BMP_pressure;BME280_temperature;BME280_humidity;BME280_pressure;Samples;Min_cycle;Max_cycle;Signal;HPM_P1;HPM_P2
2021/10/16 00:01:31;;;;;;;;;;;;;;;28.78;67.90;100769.25;5083616;27;66110;-34
2021/10/16 00:04:02;;;;;;;;;;;;;;;28.83;69.44;100776.72;5085548;27;70089;-34
2021/10/16 00:06:32;;;;;;;;;;;;;;;28.84;69.09;100776.50;5086994;27;65661;-34
2021/10/16 00:09:03;;;;;;;;;;;;;;;28.88;69.98;100768.81;5083955;27;69790;-34
2021/10/16 00:11:33;;;;;;;;;;;;;;;28.93;70.65;100772.53;5083776;27;66418;-34
2021/10/16 00:14:04;;;;;;;;;;;;;;;28.93;69.67;100777.94;5089020;27;68944;-34
2021/10/16 00:16:36;;;;;;;;;;;;;;;28.94;70.98;100778.78;5084096;27;66698;-34
2021/10/16 00:19:07;;;;;;;;;;;;;;;29.01;71.30;100773.38;5089452;27;69172;-34
2021/10/16 00:21:38;;;;;;;;;;;;;;;29.00;69.89;100782.50;5084424;27;66831;-34
2021/10/16 00:24:08;;;;;;;;;;;;;;;29.03;70.22;100782.06;5089032;27;69749;-34
2021/10/16 00:26:39;;;;;;;;;;;;;;;29.04;71.38;100781.09;5084867;27;66319;-34
2021/10/16 00:29:11;;;;;;;;;;;;;;;29.06;70.94;100782.53;5080332;27;69569;-33
2021/10/16 00:31:46;;;;;;;;;;;;;;;29.11;71.74;100784.59;5084244;27;66891;-33
2021/10/16 00:34:17;;;;;;;;;;;;;;;29.10;71.48;100789.16;5079080;27;70590;-34
2021/10/16 00:36:47;;;;;;;;;;;;;;;29.12;73.31;100791.66;5089513;27;66635;-33
2021/10/16 00:39:21;;;;;;;;;;;;;;;29.15;71.44;100796.66;5085410;27;70300;-33
2021/10/16 00:41:53;;;;;;;;;;;;;;;29.16;71.31;100787.50;5084209;27;66635;-33
2021/10/16 00:44:27;;;;;;;;;;;;;;;29.16;72.51;100792.91;5088794;27;69969;-35
2021/10/16 00:47:01;;;;;;;;;;;;;;;29.18;72.35;100790.81;5087956;27;65372;-34
2021/10/16 00:49:33;;;;;;;;;;;;;;;29.18;72.41;100793.53;5087493;27;70207;-34
2021/10/16 00:52:07;;;;;;;;;;;;;;;29.20;71.38;100799.56;5094346;27;65158;-33
2021/10/16 00:54:41;;;;;;;;;;;;;;;29.20;71.99;100799.56;5095227;27;69946;-34
2021/10/16 00:57:15;;;;;;;;;;;;;;;29.22;72.52;100802.03;5086931;27;66495;-34
2021/10/16 00:59:47;;;;;;;;;;;;;;;29.25;72.36;100802.44;5088391;27;69937;-33
2021/10/16 01:02:26;;;;;;;;;;;;;;;29.25;72.19;100801.59;5094188;27;66238;-33
2021/10/16 01:05:03;;;;;;;;;;;;;;;29.25;72.33;100813.22;5084073;27;68720;-34
2021/10/16 01:07:40;;;;;;;;;;;;;;;29.29;72.36;100814.50;5093273;27;66542;-33
2021/10/16 01:10:12;;;;;;;;;;;;;;;29.29;72.84;100814.50;5085215;27;69975;-34
2021/10/16 01:12:47;;;;;;;;;;;;;;;29.29;71.22;100813.66;5080016;27;66251;-34
2021/10/16 01:15:26;;;;;;;;;;;;;;;29.29;72.13;100814.50;5081705;27;69411;-34
2021/10/16 01:18:07;;;;;;;;;;;;;;;29.32;71.22;100811.38;5082692;27;58572;-34
2021/10/16 01:20:46;;;;;;;;;;;;;;;29.32;71.90;100808.66;5047668;27;70564;-34
2021/10/16 01:23:18;;;;;;;;;;;;;;;29.34;71.67;100816.56;5083342;27;66983;-34
2021/10/16 01:25:51;;;;;;;;;;;;;;;29.33;71.79;100823.81;5085781;27;70334;-34
2021/10/16 01:28:40;;;;;;;;;;;;;;;29.34;71.28;100822.78;5063140;27;66390;-34
2021/10/16 01:31:20;;;;;;;;;;;;;;;29.34;70.64;100820.09;5072161;27;70138;-34
2021/10/16 01:33:58;;;;;;;;;;;;;;;29.35;70.71;100815.50;5089912;27;66493;-34
2021/10/16 01:36:40;;;;;;;;;;;;;;;29.26;70.50;100806.81;5086235;27;71015;-34
2021/10/16 01:39:14;;;;;;;;;;;;;;;29.38;70.21;100823.19;5089754;27;66568;-34
2021/10/16 01:42:01;;;;;;;;;;;;;;;29.39;70.28;100820.28;5080292;27;69501;-34
2021/10/16 01:44:53;;;;;;;;;;;;;;;29.39;69.89;100823.00;5083470;27;66359;-34
2021/10/16 01:47:31;;;;;;;;;;;;;;;29.42;70.28;100819.03;5083998;27;70159;-34
2021/10/16 01:50:06;;;;;;;;;;;;;;;29.42;69.83;100819.03;5090085;27;66079;-34
2021/10/16 01:52:41;;;;;;;;;;;;;;;29.44;69.65;100816.94;5068699;27;70127;-33
2021/10/16 01:55:19;;;;;;;;;;;;;;;29.46;69.62;100816.75;5059879;27;64994;-33
2021/10/16 01:58:09;;;;;;;;;;;;;;;29.47;69.74;100818.38;5069592;27;70765;-33
2021/10/16 02:00:46;;;;;;;;;;;;;;;29.48;69.82;100822.78;5079694;27;65715;-33
2021/10/16 02:03:22;;;;;;;;;;;;;;;29.49;69.55;100817.13;5059694;27;69162;-33
2021/10/16 02:06:02;;;;;;;;;;;;;;;29.50;69.42;100809.84;5085991;27;66889;-33
2021/10/16 02:08:45;;;;;;;;;;;;;;;29.50;69.29;100815.25;5087749;27;70509;-33
2021/10/16 02:11:19;;;;;;;;;;;;;;;29.54;69.52;100816.50;5070002;27;67011;-33
2021/10/16 02:14:00;;;;;;;;;;;;;;;29.54;69.67;100816.50;5080664;27;69754;-33
2021/10/16 02:16:36;;;;;;;;;;;;;;;29.55;69.65;100818.97;5048900;27;67466;-33
2021/10/16 02:19:21;;;;;;;;;;;;;;;29.57;69.70;100816.91;5065838;27;70346;-33
2021/10/16 02:22:01;;;;;;;;;;;;;;;29.58;69.14;100823.13;5086443;27;67030;-33
2021/10/16 02:24:36;;;;;;;;;;;;;;;29.61;69.51;100828.09;5085837;27;69906;-34
2021/10/16 02:27:09;;;;;;;;;;;;;;;29.61;69.02;100822.69;5085956;27;65686;-34
2021/10/16 02:29:41;;;;;;;;;;;;;;;29.63;69.37;100826.06;5086543;27;70445;-34
2021/10/16 02:32:14;;;;;;;;;;;;;;;29.64;69.04;100816.91;5055717;27;65746;-33
2021/10/16 02:35:04;;;;;;;;;;;;;;;29.66;69.18;100825.63;5084083;27;70405;-33
2021/10/16 02:37:37;;;;;;;;;;;;;;;29.67;69.29;100823.75;5081744;27;65771;-33
2021/10/16 02:40:12;;;;;;;;;;;;;;;29.68;68.92;100834.38;5086393;27;69674;-33
2021/10/16 02:42:47;;;;;;;;;;;;;;;29.71;69.27;100828.53;5081072;27;64891;-33
2021/10/16 02:45:37;;;;;;;;;;;;;;;29.71;69.00;100828.53;5080217;27;69750;-34
2021/10/16 02:48:20;;;;;;;;;;;;;;;29.73;69.34;100826.47;5087327;27;66438;-33
2021/10/16 02:50:53;;;;;;;;;;;;;;;29.76;69.40;100833.31;5082799;27;70802;-33
2021/10/16 02:53:28;;;;;;;;;;;;;;;29.76;69.36;100831.44;5065438;27;65939;-34
2021/10/16 02:56:07;;;;;;;;;;;;;;;29.78;68.87;100826.66;5089496;27;70718;-33
2021/10/16 02:58:40;;;;;;;;;;;;;;;29.80;68.70;100831.81;5090063;27;65623;-33
2021/10/16 03:01:13;;;;;;;;;;;;;;;29.81;69.17;100828.06;5086005;27;70357;-33
2021/10/16 03:03:50;;;;;;;;;;;;;;;29.82;69.28;100827.88;5083330;27;65903;-33
2021/10/16 03:06:30;;;;;;;;;;;;;;;29.85;69.16;100829.31;5080946;27;69401;-33
2021/10/16 03:09:04;;;;;;;;;;;;;;;29.88;69.23;100828.88;5083464;27;66159;-33
2021/10/16 03:11:42;;;;;;;;;;;;;;;29.90;69.22;100823.28;5102171;27;69704;-33
2021/10/16 03:14:14;;;;;;;;;;;;;;;29.91;68.66;100816.81;5081987;27;66174;-33
2021/10/16 03:16:53;;;;;;;;;;;;;;;29.94;69.38;100828.00;5087305;27;69506;-33
2021/10/16 03:19:29;;;;;;;;;;;;;;;29.92;70.75;100829.28;5085160;27;66012;-34
2021/10/16 03:22:05;;;;;;;;;;;;;;;29.88;70.78;100819.94;5069295;27;69927;-33
2021/10/16 03:24:40;;;;;;;;;;;;;;;29.82;71.56;100814.34;5088851;27;66024;-34
2021/10/16 03:27:14;;;;;;;;;;;;;;;29.80;71.62;100805.59;5088382;27;70642;-34
2021/10/16 03:29:47;;;;;;;;;;;;;;;29.83;71.88;100813.28;5086856;27;66629;-33
2021/10/16 03:32:18;;;;;;;;;;;;;;;29.69;72.08;100798.16;5059788;27;69481;-34
2021/10/16 03:34:51;;;;;;;;;;;;;;;29.73;72.04;100799.41;5085704;27;66409;-34
2021/10/16 03:37:24;;;;;;;;;;;;;;;29.83;72.70;100820.56;5087918;27;69479;-35
2021/10/16 03:39:57;;;;;;;;;;;;;;;29.87;72.21;100816.41;5058106;27;66396;-35
2021/10/16 03:42:29;;;;;;;;;;;;;;;29.83;72.10;100810.59;5084708;27;70231;-35
2021/10/16 03:45:14;;;;;;;;;;;;;;;29.88;72.60;100811.84;5080706;27;66990;-35
2021/10/16 03:47:47;;;;;;;;;;;;;;;29.87;72.12;100811.00;5080238;27;69926;-35
2021/10/16 03:50:22;;;;;;;;;;;;;;;29.90;72.38;100809.75;5081879;27;66196;-35
2021/10/16 03:52:53;;;;;;;;;;;;;;;29.88;72.25;100811.84;5084573;27;70607;-35
2021/10/16 03:55:24;;;;;;;;;;;;;;;29.91;71.89;100811.41;5085835;27;67123;-35
2021/10/16 03:57:56;;;;;;;;;;;;;;;29.90;71.72;100809.75;5085963;27;70192;-35
2021/10/16 04:00:27;;;;;;;;;;;;;;;29.92;71.93;100807.63;5087219;27;66310;-35
2021/10/16 04:03:04;;;;;;;;;;;;;;;29.92;71.61;100803.09;5090254;27;69202;-35
2021/10/16 04:05:37;;;;;;;;;;;;;;;29.90;70.63;100798.94;5085257;27;66644;-36
2021/10/16 04:08:08;;;;;;;;;;;;;;;29.90;70.84;100798.94;5090924;27;69139;-36
2021/10/16 04:10:39;;;;;;;;;;;;;;;29.91;71.31;100784.34;5090371;27;65784;-35
2021/10/16 04:13:09;;;;;;;;;;;;;;;29.89;71.27;100792.66;5085965;27;70538;-35
2021/10/16 04:15:47;;;;;;;;;;;;;;;29.91;71.62;100782.47;5083858;27;66243;-35
2021/10/16 04:18:17;;;;;;;;;;;;;;;29.91;70.91;100784.34;5083163;27;69849;-35
2021/10/16 04:20:49;;;;;;;;;;;;;;;29.91;71.25;100773.53;5093058;27;65643;-35
2021/10/16 04:23:20;;;;;;;;;;;;;;;29.90;71.03;100761.06;5088724;27;70127;-34
2021/10/16 04:25:50;;;;;;;;;;;;;;;29.91;70.97;100757.31;5067938;27;66381;-35
2021/10/16 04:28:21;;;;;;;;;;;;;;;29.88;71.22;100750.47;5086070;27;69375;-35
2021/10/16 04:31:01;;;;;;;;;;;;;;;29.84;71.20;100750.06;5087444;27;65910;-35
2021/10/16 04:33:33;;;;;;;;;;;;;;;29.83;71.40;100758.38;5048322;27;69829;-35
2021/10/16 04:36:03;;;;;;;;;;;;;;;29.85;71.68;100748.19;5084459;27;65603;-35
2021/10/16 04:38:34;;;;;;;;;;;;;;;29.86;71.61;100749.00;5078760;27;70091;-35
2021/10/16 04:41:05;;;;;;;;;;;;;;;29.90;72.20;100740.25;5091101;27;65952;-35
2021/10/16 04:43:39;;;;;;;;;;;;;;;29.93;71.91;100733.59;5085104;27;69809;-35
2021/10/16 04:46:10;;;;;;;;;;;;;;;29.96;72.28;100719.63;5082777;27;66705;-35
2021/10/16 04:48:44;;;;;;;;;;;;;;;29.98;71.87;100714.84;5081234;27;70017;-35
2021/10/16 04:51:15;;;;;;;;;;;;;;;29.99;71.52;100719.19;5086794;27;65794;-35
2021/10/16 04:53:45;;;;;;;;;;;;;;;30.03;71.53;100713.13;5076448;27;70205;-35
2021/10/16 04:56:16;;;;;;;;;;;;;;;30.06;71.33;100714.56;5080849;27;66521;-35
2021/10/16 04:58:47;;;;;;;;;;;;;;;30.08;71.98;100709.75;5080427;27;70314;-35
2021/10/16 05:01:17;;;;;;;;;;;;;;;30.08;71.73;100709.75;5081645;27;67265;-34
2021/10/16 05:03:50;;;;;;;;;;;;;;;30.10;71.44;100699.56;5088408;27;70480;-35
2021/10/16 05:06:21;;;;;;;;;;;;;;;30.10;71.66;100699.56;5087015;27;65708;-34
2021/10/16 05:08:53;;;;;;;;;;;;;;;30.10;71.83;100696.84;5079311;27;69289;-35
2021/10/16 05:11:23;;;;;;;;;;;;;;;30.12;71.64;100689.34;5080651;27;65924;-35
2021/10/16 05:13:55;;;;;;;;;;;;;;;30.11;71.35;100684.97;5079965;27;70235;-35
2021/10/16 05:16:25;;;;;;;;;;;;;;;30.12;71.75;100678.53;5089486;27;65672;-35
2021/10/16 05:18:57;;;;;;;;;;;;;;;30.10;71.46;100680.63;5085097;27;70336;-35
2021/10/16 05:21:28;;;;;;;;;;;;;;;30.11;71.79;100682.25;5085099;27;66634;-35
2021/10/16 05:23:59;;;;;;;;;;;;;;;30.12;71.54;100673.13;5076481;27;70268;-35
2021/10/16 05:26:31;;;;;;;;;;;;;;;30.07;72.13;100654.00;5090210;27;66801;-36
2021/10/16 05:29:04;;;;;;;;;;;;;;;30.16;71.70;100655.38;5085532;27;70497;-35
2021/10/16 05:31:34;;;;;;;;;;;;;;;30.17;72.11;100648.09;5063121;27;66110;-35
2021/10/16 05:34:05;;;;;;;;;;;;;;;30.18;72.42;100650.59;5084777;27;69987;-35
2021/10/16 05:36:36;;;;;;;;;;;;;;;30.19;73.18;100644.13;5083513;27;66511;-35
2021/10/16 05:39:06;;;;;;;;;;;;;;;30.13;71.53;100644.19;5084749;27;69648;-36
2021/10/16 05:41:41;;;;;;;;;;;;;;;29.99;70.40;100635.34;5078671;27;66132;-36
2021/10/16 05:44:13;;;;;;;;;;;;;;;29.89;69.91;100640.41;5081318;27;70054;-36
2021/10/16 05:46:44;;;;;;;;;;;;;;;29.79;69.21;100632.81;5084969;27;66598;-36
2021/10/16 05:49:14;;;;;;;;;;;;;;;29.72;68.70;100627.41;5082928;27;69653;-36
2021/10/16 05:51:44;;;;;;;;;;;;;;;29.67;67.65;100627.28;5081187;27;67163;-36
2021/10/16 05:54:15;;;;;;;;;;;;;;;29.63;66.87;100626.03;5080762;27;70291;-37
2021/10/16 05:56:45;;;;;;;;;;;;;;;29.57;65.48;100627.69;5087307;27;65610;-36
2021/10/16 05:59:16;;;;;;;;;;;;;;;29.51;64.94;100617.78;5087676;27;69879;-35
2021/10/16 06:01:48;;;;;;;;;;;;;;;29.45;64.55;100606.97;5089617;27;66333;-36
2021/10/16 06:04:19;;;;;;;;;;;;;;;29.40;63.69;100596.84;5087816;27;69115;-36
2021/10/16 06:06:51;;;;;;;;;;;;;;;29.36;62.21;100588.34;5082194;27;66353;-35
2021/10/16 06:09:21;;;;;;;;;;;;;;;29.30;61.62;100589.19;5085992;27;70094;-36
2021/10/16 06:11:52;;;;;;;;;;;;;;;29.27;61.01;100584.22;5085201;27;65983;-36
2021/10/16 06:14:23;;;;;;;;;;;;;;;29.25;60.33;100586.31;5086327;27;70322;-36
2021/10/16 06:16:59;;;;;;;;;;;;;;;29.28;61.38;100583.19;5098201;27;66803;-36
2021/10/16 06:19:30;;;;;;;;;;;;;;;29.37;60.00;100576.50;5085689;27;69822;-36
2021/10/16 06:22:01;;;;;;;;;;;;;;;29.40;58.29;100567.94;5098657;27;66022;-36
2021/10/16 06:24:31;;;;;;;;;;;;;;;29.44;58.42;100565.63;5083695;27;69633;-36
2021/10/16 06:27:02;;;;;;;;;;;;;;;29.47;57.36;100567.06;5089351;27;66614;-36
2021/10/16 06:29:33;;;;;;;;;;;;;;;29.47;57.38;100557.06;5090745;27;69637;-36
2021/10/16 06:32:04;;;;;;;;;;;;;;;29.46;56.33;100549.22;5084117;27;66271;-36
2021/10/16 06:34:34;;;;;;;;;;;;;;;29.44;54.87;100541.31;5086612;27;69781;-36
2021/10/16 06:37:05;;;;;;;;;;;;;;;29.43;55.07;100534.25;5085336;27;66806;-36
2021/10/16 06:39:35;;;;;;;;;;;;;;;29.45;55.64;100531.31;5089104;27;69887;-36
2021/10/16 06:42:05;;;;;;;;;;;;;;;29.44;54.20;100524.28;5082804;27;66721;-35
2021/10/16 06:44:43;;;;;;;;;;;;;;;29.43;53.70;100517.22;5086235;27;69475;-36
2021/10/16 06:47:36;;;;;;;;;;;;;;;29.43;54.08;100506.41;5092804;27;65536;-36
2021/10/16 06:50:23;;;;;;;;;;;;;;;29.42;53.72;100499.34;5085568;27;70384;-36
2021/10/16 06:52:54;;;;;;;;;;;;;;;29.40;53.17;100508.50;5090576;27;65926;-37
2021/10/16 06:55:26;;;;;;;;;;;;;;;29.37;52.89;100503.53;5089560;27;69823;-36
2021/10/16 06:57:56;;;;;;;;;;;;;;;29.36;52.89;100499.19;5070727;27;65580;-36
2021/10/16 07:00:27;;;;;;;;;;;;;;;29.35;52.89;100497.50;5082251;27;69442;-36
2021/10/16 07:03:08;;;;;;;;;;;;;;;29.31;52.38;100504.41;5088298;27;66827;-36
2021/10/16 07:05:40;;;;;;;;;;;;;;;29.32;52.21;100499.84;5096189;27;70104;-36
2021/10/16 07:08:10;;;;;;;;;;;;;;;29.31;51.75;100495.47;5073753;27;66160;-37
2021/10/16 07:10:44;;;;;;;;;;;;;;;29.28;51.28;100499.47;5083181;27;70163;-36
2021/10/16 07:13:15;;;;;;;;;;;;;;;29.31;51.66;100503.56;5088975;27;66302;-36
2021/10/16 07:15:48;;;;;;;;;;;;;;;29.28;50.58;100499.47;5086193;27;69260;-41
2021/10/16 07:18:22;;;;;;;;;;;;;;;29.28;50.65;100488.66;5086083;27;66248;-36
2021/10/16 07:20:54;;;;;;;;;;;;;;;29.30;50.84;100491.94;5089978;27;70020;-36
2021/10/16 07:23:45;;;;;;;;;;;;;;;29.29;50.98;100489.47;5103050;27;65776;-35
2021/10/16 07:26:22;;;;;;;;;;;;;;;29.28;50.92;100488.66;5096012;27;70347;-35
2021/10/16 07:28:55;;;;;;;;;;;;;;;29.29;50.95;100493.00;5084569;27;66713;-36
2021/10/16 07:31:29;;;;;;;;;;;;;;;29.27;50.24;100492.38;5092087;27;69852;-35
2021/10/16 07:34:00;;;;;;;;;;;;;;;29.28;50.21;100488.66;5082710;27;66317;-35
2021/10/16 07:36:38;;;;;;;;;;;;;;;29.27;49.70;100486.97;5087511;27;70258;-35
2021/10/16 07:39:14;;;;;;;;;;;;;;;29.24;49.41;100487.41;5096582;27;65966;-35
2021/10/16 07:41:47;;;;;;;;;;;;;;;29.25;49.89;100491.75;5091981;27;69969;-35
2021/10/16 07:44:23;;;;;;;;;;;;;;;29.25;49.75;100489.06;5088921;27;65805;-36
2021/10/16 07:46:54;;;;;;;;;;;;;;;29.25;49.79;100499.88;5080999;27;70422;-36
2021/10/16 07:49:24;;;;;;;;;;;;;;;29.24;49.61;100500.09;5081492;27;65921;-36
2021/10/16 07:51:54;;;;;;;;;;;;;;;29.25;50.03;100510.66;5086559;27;70745;-36
2021/10/16 07:54:29;;;;;;;;;;;;;;;29.24;49.97;100509.03;5090238;27;66685;-36
2021/10/16 07:57:04;;;;;;;;;;;;;;;29.26;51.08;100506.13;5084790;27;70121;-37
2021/10/16 07:59:39;;;;;;;;;;;;;;;29.10;52.41;100504.75;5085135;27;66565;-36
2021/10/16 08:02:15;;;;;;;;;;;;;;;29.02;53.75;100494.19;5071125;27;69987;-35
2021/10/16 08:04:50;;;;;;;;;;;;;;;29.07;54.88;100487.13;5086080;27;66408;-35
2021/10/16 08:07:31;;;;;;;;;;;;;;;29.13;55.71;100488.13;5087305;27;70395;-36
2021/10/16 08:10:30;;;;;;;;;;;;;;;29.22;56.04;100489.50;5081889;27;66549;-36
2021/10/16 08:13:02;;;;;;;;;;;;;;;29.29;56.85;100490.28;5084323;27;69573;-35
2021/10/16 08:15:38;;;;;;;;;;;;;;;29.34;56.89;100482.38;5084956;27;65832;-35
2021/10/16 08:18:13;;;;;;;;;;;;;;;29.42;57.77;100488.53;5087711;27;69721;-34
2021/10/16 08:20:48;;;;;;;;;;;;;;;29.44;58.20;100486.44;5072796;27;66400;-35
2021/10/16 08:23:19;;;;;;;;;;;;;;;29.50;58.15;100488.25;5075383;27;70787;-37
2021/10/16 08:25:53;;;;;;;;;;;;;;;29.55;59.82;100488.44;5082222;27;65536;-36
2021/10/16 08:28:30;;;;;;;;;;;;;;;29.55;60.28;100488.44;5083040;27;68703;-35
2021/10/16 08:31:04;;;;;;;;;;;;;;;29.63;59.90;100474.66;5083434;27;65319;-36
2021/10/16 08:33:37;;;;;;;;;;;;;;;29.66;60.58;100485.03;5079749;27;70014;-35
2021/10/16 08:36:07;;;;;;;;;;;;;;;29.71;60.86;100481.69;5085577;27;65530;-35
2021/10/16 08:38:42;;;;;;;;;;;;;;;29.79;62.80;100479.50;5082522;27;68656;-35
2021/10/16 08:41:17;;;;;;;;;;;;;;;29.86;64.41;100473.22;5087923;27;66441;-37
2021/10/16 08:43:56;;;;;;;;;;;;;;;29.91;65.08;100470.66;5089585;27;69511;-36
2021/10/16 08:46:28;;;;;;;;;;;;;;;29.95;65.49;100466.44;5086521;27;65653;-36
2021/10/16 08:49:01;;;;;;;;;;;;;;;29.98;66.41;100466.03;5091124;27;69435;-36
2021/10/16 08:51:34;;;;;;;;;;;;;;;30.03;66.90;100463.44;5092550;27;66311;-36
2021/10/16 08:54:05;;;;;;;;;;;;;;;30.06;67.15;100471.13;5085802;27;69507;-36
2021/10/16 08:56:37;;;;;;;;;;;;;;;30.10;67.69;100471.50;5085556;27;66042;-36
2021/10/16 08:59:08;;;;;;;;;;;;;;;30.11;68.12;100471.28;5075238;27;69879;-36
2021/10/16 09:01:56;;;;;;;;;;;;;;;30.13;68.23;100477.28;5085739;27;66102;-36
2021/10/16 09:04:28;;;;;;;;;;;;;;;30.15;68.89;100483.31;5088464;27;69651;-36
2021/10/16 09:06:59;;;;;;;;;;;;;;;30.18;69.11;100499.09;5084072;27;65946;-36
2021/10/16 09:09:30;;;;;;;;;;;;;;;30.20;69.16;100490.72;5085250;27;70870;-36
2021/10/16 09:12:11;;;;;;;;;;;;;;;30.21;69.59;100487.81;5092403;27;66134;-36
2021/10/16 09:14:49;;;;;;;;;;;;;;;30.24;70.03;100498.22;5091151;27;70200;-37
2021/10/16 09:17:20;;;;;;;;;;;;;;;30.22;71.24;100505.72;5082932;27;66417;-36
2021/10/16 09:19:53;;;;;;;;;;;;;;;30.27;71.61;100515.88;5094510;27;69503;-40
2021/10/16 09:22:24;;;;;;;;;;;;;;;30.25;70.85;100518.78;5093600;27;66239;-36
2021/10/16 09:24:55;;;;;;;;;;;;;;;30.19;70.76;100516.97;5082772;27;70491;-36
2021/10/16 09:27:30;;;;;;;;;;;;;;;30.18;69.68;100520.72;5084946;27;66344;-36
2021/10/16 09:30:04;;;;;;;;;;;;;;;30.16;69.02;100522.00;5082890;27;70407;-36
2021/10/16 09:32:38;;;;;;;;;;;;;;;30.15;69.28;100525.78;5088030;27;66532;-36
2021/10/16 09:35:08;;;;;;;;;;;;;;;30.14;68.84;100527.63;5074990;27;70433;-35
2021/10/16 09:37:52;;;;;;;;;;;;;;;30.12;68.76;100527.03;5089147;27;65780;-35
2021/10/16 09:40:38;;;;;;;;;;;;;;;30.15;69.58;100526.59;5086815;27;69939;-35
2021/10/16 09:43:21;;;;;;;;;;;;;;;30.19;70.42;100532.38;5087525;27;66719;-36
2021/10/16 09:46:10;;;;;;;;;;;;;;;30.19;70.35;100525.09;5078601;27;69322;-35
2021/10/16 09:48:40;;;;;;;;;;;;;;;30.18;70.33;100531.56;5086390;27;65837;-36
2021/10/16 09:51:11;;;;;;;;;;;;;;;30.10;69.16;100534.56;5090184;27;70190;-35
2021/10/16 09:53:48;;;;;;;;;;;;;;;30.06;68.20;100538.72;5084508;27;65226;-35
2021/10/16 09:56:19;;;;;;;;;;;;;;;30.00;68.74;100545.03;5081895;27;70238;-35
2021/10/16 09:58:51;;;;;;;;;;;;;;;30.01;69.37;100546.72;5086523;27;66553;-35
2021/10/16 10:01:21;;;;;;;;;;;;;;;29.98;69.40;100555.28;5082617;27;68910;-36
2021/10/16 10:03:52;;;;;;;;;;;;;;;29.95;70.36;100558.41;5086327;27;65792;-35
2021/10/16 10:06:24;;;;;;;;;;;;;;;29.89;70.54;100567.41;5088588;27;70292;-36
2021/10/16 10:08:55;;;;;;;;;;;;;;;29.89;71.17;100575.50;5088544;27;66596;-35
2021/10/16 10:11:26;;;;;;;;;;;;;;;29.83;72.51;100583.44;5081564;27;70157;-35
2021/10/16 10:13:56;;;;;;;;;;;;;;;29.81;73.50;100580.16;5080983;27;66547;-35
2021/10/16 10:16:32;;;;;;;;;;;;;;;29.73;74.19;100587.72;5079476;27;70699;-41
2021/10/16 10:19:05;;;;;;;;;;;;;;;29.69;74.48;100598.13;5078541;27;66829;-34
2021/10/16 10:21:37;;;;;;;;;;;;;;;29.76;74.32;100607.03;5093150;27;70111;-35
2021/10/16 10:24:09;;;;;;;;;;;;;;;29.84;74.20;100604.06;5088928;27;65476;-35
2021/10/16 10:26:43;;;;;;;;;;;;;;;29.90;73.71;100604.22;5086212;27;70162;-36
2021/10/16 10:29:17;;;;;;;;;;;;;;;29.93;73.74;100614.59;5085860;27;66595;-35
2021/10/16 10:31:53;;;;;;;;;;;;;;;29.95;74.32;100620.59;5080980;27;70322;-35
2021/10/16 10:34:34;;;;;;;;;;;;;;;29.99;74.72;100624.53;5082428;27;66509;-35
2021/10/16 10:37:09;;;;;;;;;;;;;;;30.02;74.93;100629.50;5086038;27;69857;-36
2021/10/16 10:39:41;;;;;;;;;;;;;;;30.02;75.36;100634.91;5088743;27;65961;-35
2021/10/16 10:42:14;;;;;;;;;;;;;;;30.02;75.31;100632.19;5081278;27;70155;-38
2021/10/16 10:44:45;;;;;;;;;;;;;;;30.10;73.97;100636.50;5082455;27;65667;-35
2021/10/16 10:47:26;;;;;;;;;;;;;;;30.20;73.23;100642.22;5083659;27;70550;-35
2021/10/16 10:50:04;;;;;;;;;;;;;;;30.28;72.53;100647.41;5092505;27;66669;-35
2021/10/16 10:52:52;;;;;;;;;;;;;;;30.35;72.05;100648.19;5086516;27;69933;-36
2021/10/16 10:55:23;;;;;;;;;;;;;;;30.42;72.14;100640.00;5083428;27;67086;-36
2021/10/16 10:57:59;;;;;;;;;;;;;;;30.47;71.50;100654.50;5085471;27;70262;-36
2021/10/16 11:00:30;;;;;;;;;;;;;;;30.51;71.65;100660.31;5085517;27;66593;-36
2021/10/16 11:03:01;;;;;;;;;;;;;;;30.56;70.99;100663.16;5087118;27;69404;-36
2021/10/16 11:05:35;;;;;;;;;;;;;;;30.60;71.17;100667.09;5085601;27;67644;-35
2021/10/16 11:08:11;;;;;;;;;;;;;;;30.61;70.75;100660.63;5081903;27;69962;-36
2021/10/16 11:10:43;;;;;;;;;;;;;;;30.64;70.55;100664.75;5085638;27;66820;-36
2021/10/16 11:13:18;;;;;;;;;;;;;;;30.65;70.36;100664.56;5077843;27;70220;-35
2021/10/16 11:15:57;;;;;;;;;;;;;;;30.66;70.83;100674.31;5067844;27;65590;-35
2021/10/16 11:18:28;;;;;;;;;;;;;;;30.54;70.75;100659.88;5084570;27;69668;-37
2021/10/16 11:21:03;;;;;;;;;;;;;;;30.68;70.15;100688.47;5087937;27;66173;-35
2021/10/16 11:23:35;;;;;;;;;;;;;;;30.38;70.49;100644.19;5081451;27;70171;-35
2021/10/16 11:26:09;;;;;;;;;;;;;;;30.69;70.20;100687.41;5089281;27;66482;-35
2021/10/16 11:28:40;;;;;;;;;;;;;;;30.69;70.07;100700.94;5085317;27;70061;-37
2021/10/16 11:31:11;;;;;;;;;;;;;;;30.61;71.98;100703.94;5087219;27;66475;-35
2021/10/16 11:33:42;;;;;;;;;;;;;;;30.53;72.76;100701.50;5079231;27;70062;-36
2021/10/16 11:36:14;;;;;;;;;;;;;;;30.44;73.32;100709.09;5088202;27;66596;-35
2021/10/16 11:38:50;;;;;;;;;;;;;;;30.40;73.10;100718.72;5082729;27;70121;-35
2021/10/16 11:41:21;;;;;;;;;;;;;;;30.36;73.25;100728.31;5079669;27;66989;-36
2021/10/16 11:43:51;;;;;;;;;;;;;;;30.34;73.70;100729.56;5086004;27;71073;-36
2021/10/16 11:46:22;;;;;;;;;;;;;;;30.12;72.89;100716.41;5078761;27;66262;-35
2021/10/16 11:48:54;;;;;;;;;;;;;;;30.07;70.76;100729.75;5086016;27;70771;-35
2021/10/16 11:51:27;;;;;;;;;;;;;;;29.88;69.71;100738.81;5090163;27;66869;-35
2021/10/16 11:53:59;;;;;;;;;;;;;;;29.74;69.31;100756.97;5079134;27;70161;-35
2021/10/16 11:56:30;;;;;;;;;;;;;;;29.65;67.82;100742.88;5080080;27;66127;-35
2021/10/16 11:59:01;;;;;;;;;;;;;;;29.55;67.35;100754.13;5080508;27;70086;-35
2021/10/16 12:01:32;;;;;;;;;;;;;;;29.47;66.97;100750.81;5081960;27;66513;-35
2021/10/16 12:04:03;;;;;;;;;;;;;;;29.36;65.75;100758.56;5086881;27;69390;-35
2021/10/16 12:06:36;;;;;;;;;;;;;;;29.27;65.01;100751.72;5089184;27;66562;-35
2021/10/16 12:09:11;;;;;;;;;;;;;;;29.22;63.68;100769.63;5079803;27;70602;-36
2021/10/16 12:11:43;;;;;;;;;;;;;;;29.16;63.51;100765.88;5082579;27;66620;-38
2021/10/16 12:14:21;;;;;;;;;;;;;;;29.10;62.50;100772.13;5077150;27;70493;-36
2021/10/16 12:17:17;;;;;;;;;;;;;;;29.03;62.68;100782.06;5081142;27;65914;-35
2021/10/16 12:19:55;;;;;;;;;;;;;;;28.99;62.80;100791.66;5081027;27;70870;-35
2021/10/16 12:22:25;;;;;;;;;;;;;;;29.00;61.50;100796.00;5086146;27;66148;-35
2021/10/16 12:25:01;;;;;;;;;;;;;;;29.04;61.06;100794.59;5082066;27;70080;-37
2021/10/16 12:27:31;;;;;;;;;;;;;;;29.07;60.95;100794.16;5086647;27;66362;-36
2021/10/16 12:30:13;;;;;;;;;;;;;;;29.04;59.26;100800.00;5051002;27;70518;-35
2021/10/16 12:33:06;;;;;;;;;;;;;;;29.01;58.76;100794.97;5080157;27;65492;-35
2021/10/16 12:35:39;;;;;;;;;;;;;;;28.98;58.12;100798.09;5084203;27;70380;-35
2021/10/16 12:38:12;;;;;;;;;;;;;;;28.90;57.56;100799.97;5079837;27;66312;-36
2021/10/16 12:40:43;;;;;;;;;;;;;;;28.90;57.34;100794.56;5084522;27;70021;-36
2021/10/16 12:43:27;;;;;;;;;;;;;;;28.84;56.68;100795.41;5068672;27;67220;-36
2021/10/16 12:45:58;;;;;;;;;;;;;;;28.69;56.33;100770.47;5083483;27;70184;-35
2021/10/16 12:48:34;;;;;;;;;;;;;;;28.79;55.72;100795.19;5052039;27;65643;-36
2021/10/16 12:51:07;;;;;;;;;;;;;;;28.75;55.78;100796.63;5084388;27;69888;-36
2021/10/16 12:54:02;;;;;;;;;;;;;;;28.73;55.18;100798.75;5085857;27;66103;-36
2021/10/16 12:56:33;;;;;;;;;;;;;;;28.70;54.71;100799.97;5079912;27;70219;-35
2021/10/16 12:59:04;;;;;;;;;;;;;;;28.54;54.89;100777.97;5081418;27;65116;-35
2021/10/16 13:01:34;;;;;;;;;;;;;;;28.65;54.54;100804.34;5082924;27;70619;-34
2021/10/16 13:04:08;;;;;;;;;;;;;;;28.64;54.63;100805.34;5082054;27;66604;-34
2021/10/16 13:06:47;;;;;;;;;;;;;;;28.60;53.97;100799.56;5077901;27;69244;-34
2021/10/16 13:09:27;;;;;;;;;;;;;;;28.59;53.83;100802.47;5086037;27;66458;-34
2021/10/16 13:11:59;;;;;;;;;;;;;;;28.57;53.83;100802.66;5083097;27;69869;-34